createdAt,value
2019-02-26T00:01:09.845Z,65.03
2019-02-26T00:02:17.395Z,59.88
2019-02-26T00:03:26.269Z,61.50
2019-02-26T00:04:36.931Z,66.42
2019-02-26T00:05:43.199Z,60.03
2019-02-26T00:06:49.253Z,59.27
2019-02-26T00:07:57.860Z,53.85
2019-02-26T00:09:07.121Z,56.00
2019-02-26T00:10:13.623Z,58.33
2019-02-26T00:11:19.905Z,61.83
2019-02-26T00:12:26.358Z,58.28
2019-02-26T00:13:34.629Z,54.63
2019-02-26T00:14:43.076Z,59.38
2019-02-26T00:15:49.176Z,59.27
2019-02-26T00:16:55.353Z,54.42
2019-02-26T00:18:01.611Z,59.10
2019-02-26T00:19:09.616Z,57.05
2019-02-26T00:20:17.556Z,54.55
2019-02-26T00:21:24.418Z,57.43
2019-02-26T00:22:32.320Z,49.90
2019-02-26T00:23:39.334Z,51.18
2019-02-26T00:24:46.628Z,50.90
2019-02-26T00:25:53.006Z,55.08
2019-02-26T00:27:01.484Z,54.23
2019-02-26T00:28:07.175Z,57.30
2019-02-26T00:29:13.407Z,51.15
2019-02-26T00:30:19.596Z,56.13
2019-02-26T00:31:27.851Z,55.48
2019-02-26T00:32:33.915Z,49.85
2019-02-26T00:33:40.707Z,51.42
2019-02-26T00:34:46.768Z,53.63
2019-02-26T00:35:53.027Z,46.55
2019-02-26T00:37:00.025Z,49.40
2019-02-26T00:38:08.883Z,48.55
2019-02-26T00:39:14.557Z,50.05
2019-02-26T00:40:20.672Z,47.23
2019-02-26T00:41:28.738Z,52.53
2019-02-26T00:42:36.078Z,47.20
2019-02-26T00:43:42.313Z,43.38
2019-02-26T00:44:51.360Z,47.78
2019-02-26T00:45:58.288Z,51.37
2019-02-26T00:47:04.962Z,50.25
2019-02-26T00:48:11.907Z,48.63
2019-02-26T00:49:19.107Z,44.18
2019-02-26T00:50:25.358Z,46.15
2019-02-26T00:51:31.543Z,44.58
2019-02-26T00:52:39.176Z,49.27
2019-02-26T00:53:48.864Z,47.88
2019-02-26T00:54:57.604Z,46.18
2019-02-26T00:56:03.269Z,47.83
2019-02-26T00:57:11.552Z,44.70
2019-02-26T00:58:18.176Z,43.52
2019-02-26T00:59:24.304Z,40.83
2019-02-26T01:00:30.860Z,43.95
2019-02-26T01:01:38.228Z,40.12
2019-02-26T01:02:44.931Z,39.10
2019-02-26T01:03:51.780Z,45.75
2019-02-26T01:04:58.032Z,41.02
2019-02-26T01:06:05.806Z,38.70
2019-02-26T01:07:12.987Z,39.23
2019-02-26T01:08:19.849Z,43.40
2019-02-26T01:09:27.354Z,39.67
2019-02-26T01:10:34.649Z,36.50
2019-02-26T01:11:42.962Z,34.85
2019-02-26T01:12:49.674Z,41.88
2019-02-26T01:13:57.341Z,39.55
2019-02-26T01:15:04.970Z,38.40
2019-02-26T01:16:11.616Z,37.50
2019-02-26T01:17:18.808Z,33.92
2019-02-26T01:18:26.699Z,36.05
2019-02-26T01:19:34.172Z,35.85
2019-02-26T01:20:41.010Z,39.65
2019-02-26T01:21:46.985Z,36.33
2019-02-26T01:22:53.036Z,34.63
2019-02-26T01:24:01.609Z,37.53
2019-02-26T01:25:07.361Z,29.23
2019-02-26T01:26:13.543Z,32.70
2019-02-26T01:27:19.692Z,33.08
2019-02-26T01:28:27.052Z,33.20
2019-02-26T01:29:33.828Z,31.50
2019-02-26T01:30:40.077Z,28.62
2019-02-26T01:31:46.148Z,29.15
2019-02-26T01:32:52.355Z,31.70
2019-02-26T01:33:58.655Z,29.82
2019-02-26T01:35:05.925Z,25.35
2019-02-26T01:36:14.009Z,29.20
2019-02-26T01:37:20.917Z,27.85
2019-02-26T01:38:27.038Z,27.93
2019-02-26T01:39:33.202Z,27.87
2019-02-26T01:40:41.817Z,28.15
2019-02-26T01:41:50.393Z,24.98
2019-02-26T01:42:57.923Z,24.07
2019-02-26T01:44:05.021Z,24.65
2019-02-26T01:45:11.967Z,24.20
2019-02-26T01:46:18.742Z,27.00
2019-02-26T01:47:26.271Z,23.55
2019-02-26T01:48:34.388Z,26.20
2019-02-26T01:49:41.855Z,28.15
2019-02-26T01:50:48.608Z,27.80
2019-02-26T01:51:54.757Z,28.75
2019-02-26T01:53:01.130Z,25.43
2019-02-26T01:54:08.211Z,24.27
2019-02-26T01:55:16.167Z,24.87
2019-02-26T01:56:22.768Z,27.32
2019-02-26T01:57:28.628Z,25.52
2019-02-26T01:58:34.441Z,25.52
2019-02-26T01:59:40.517Z,23.77
2019-02-26T02:00:46.807Z,23.30
2019-02-26T02:01:53.757Z,26.60
2019-02-26T02:03:00.656Z,23.95
2019-02-26T02:04:08.763Z,21.62
2019-02-26T02:05:14.686Z,19.60
2019-02-26T02:06:20.769Z,25.88
2019-02-26T02:07:28.728Z,22.40
2019-02-26T02:08:34.909Z,21.40
2019-02-26T02:09:40.654Z,22.87
2019-02-26T02:10:46.426Z,23.42
2019-02-26T02:11:52.546Z,26.23
2019-02-26T02:13:00.276Z,25.10
2019-02-26T02:14:08.138Z,24.37
2019-02-26T02:15:15.760Z,21.97
2019-02-26T02:16:24.198Z,27.35
2019-02-26T02:17:33.276Z,22.15
2019-02-26T02:18:43.654Z,26.52
2019-02-26T02:19:48.086Z,26.27
2019-02-26T02:20:54.246Z,24.70
2019-02-26T02:22:00.228Z,22.95
2019-02-26T02:23:07.127Z,22.55
2019-02-26T02:24:15.563Z,21.97
2019-02-26T02:25:22.214Z,23.10
2019-02-26T02:26:28.398Z,25.62
2019-02-26T02:27:34.757Z,21.50
2019-02-26T02:28:40.968Z,25.68
2019-02-26T02:29:48.816Z,23.40
2019-02-26T02:30:55.223Z,19.77
2019-02-26T02:32:04.434Z,26.62
2019-02-26T02:33:10.483Z,23.30
2019-02-26T02:34:16.666Z,26.00
2019-02-26T02:35:22.816Z,26.40
2019-02-26T02:36:30.069Z,24.30
2019-02-26T02:37:36.255Z,20.80
2019-02-26T02:38:42.444Z,24.95
2019-02-26T02:39:48.526Z,22.87
2019-02-26T02:40:55.021Z,24.57
2019-02-26T02:42:01.217Z,23.32
2019-02-26T02:43:07.959Z,21.95
2019-02-26T02:44:17.661Z,25.12
2019-02-26T02:45:24.345Z,23.85
2019-02-26T02:46:30.552Z,23.50
2019-02-26T02:47:38.694Z,25.35
2019-02-26T02:48:45.426Z,24.82
2019-02-26T02:49:51.697Z,23.12
2019-02-26T02:50:59.609Z,22.30
2019-02-26T02:52:07.224Z,23.85
2019-02-26T02:53:13.796Z,25.72
2019-02-26T02:54:20.965Z,24.65
2019-02-26T02:55:27.436Z,27.73
2019-02-26T02:56:36.001Z,24.92
2019-02-26T02:57:41.374Z,25.82
2019-02-26T02:58:49.499Z,22.07
2019-02-26T02:59:56.849Z,27.20
2019-02-26T03:01:03.305Z,26.02
2019-02-26T03:02:12.023Z,23.57
2019-02-26T03:03:17.174Z,22.73
2019-02-26T03:04:26.044Z,30.15
2019-02-26T03:05:32.105Z,24.57
2019-02-26T03:06:38.745Z,24.10
2019-02-26T03:07:48.149Z,25.62
2019-02-26T03:08:53.492Z,26.42
2019-02-26T03:10:03.924Z,26.45
2019-02-26T03:11:09.298Z,27.32
2019-02-26T03:12:15.353Z,25.35
2019-02-26T03:13:24.872Z,27.52
2019-02-26T03:14:32.430Z,25.52
2019-02-26T03:15:37.193Z,26.90
2019-02-26T03:16:45.589Z,28.87
2019-02-26T03:17:51.745Z,26.48
2019-02-26T03:18:58.120Z,27.32
2019-02-26T03:20:06.954Z,25.80
2019-02-26T03:21:12.536Z,27.30
2019-02-26T03:22:21.449Z,28.65
2019-02-26T03:23:26.557Z,28.62
2019-02-26T03:24:33.848Z,30.48
2019-02-26T03:25:41.481Z,24.02
2019-02-26T03:26:48.230Z,26.30
2019-02-26T03:27:54.365Z,24.43
2019-02-26T03:29:00.242Z,24.70
2019-02-26T03:30:07.574Z,23.80
2019-02-26T03:31:13.706Z,25.43
2019-02-26T03:32:20.819Z,27.42
2019-02-26T03:33:27.084Z,28.17
2019-02-26T03:34:33.346Z,27.42
2019-02-26T03:35:39.569Z,27.05
2019-02-26T03:36:45.871Z,24.82
2019-02-26T03:37:54.882Z,23.98
2019-02-26T03:39:02.653Z,24.95
2019-02-26T03:40:10.288Z,25.15
2019-02-26T03:41:19.577Z,27.37
2019-02-26T03:42:24.407Z,23.67
2019-02-26T03:43:31.399Z,31.15
2019-02-26T03:44:38.597Z,28.27
2019-02-26T03:45:47.356Z,24.35
2019-02-26T03:46:52.756Z,29.48
2019-02-26T03:47:59.020Z,27.00
2019-02-26T03:49:05.233Z,28.90
2019-02-26T03:50:13.285Z,30.52
2019-02-26T03:51:19.313Z,32.50
2019-02-26T03:52:25.654Z,32.85
2019-02-26T03:53:34.258Z,30.05
2019-02-26T03:54:40.324Z,27.55
2019-02-26T03:55:48.126Z,28.45
2019-02-26T03:56:54.366Z,30.50
2019-02-26T03:58:02.145Z,29.32
2019-02-26T03:59:11.128Z,27.10
2019-02-26T04:00:19.559Z,28.98
2019-02-26T04:01:24.629Z,27.85
2019-02-26T04:02:30.662Z,25.12
2019-02-26T04:03:37.563Z,31.40
2019-02-26T04:04:48.802Z,29.35
2019-02-26T04:05:57.079Z,25.70
2019-02-26T04:07:04.914Z,24.98
2019-02-26T04:08:11.407Z,28.77
2019-02-26T04:09:19.605Z,24.07
2019-02-26T04:10:25.289Z,28.95
2019-02-26T04:11:32.686Z,30.62
2019-02-26T04:12:41.961Z,27.15
2019-02-26T04:13:48.683Z,28.27
2019-02-26T04:14:54.034Z,29.70
2019-02-26T04:16:03.851Z,28.10
2019-02-26T04:17:09.023Z,27.25
2019-02-26T04:18:15.237Z,24.45
2019-02-26T04:19:26.147Z,27.50
2019-02-26T04:20:29.440Z,31.77
2019-02-26T04:22:13.131Z,28.10
2019-02-26T04:23:21.863Z,24.30
2019-02-26T04:24:29.908Z,31.60
2019-02-26T04:25:43.314Z,26.48
2019-02-26T04:27:33.494Z,27.35
2019-02-26T04:29:06.451Z,24.80
2019-02-26T04:30:39.333Z,27.32
2019-02-26T04:32:23.260Z,23.35
2019-02-26T04:34:08.487Z,30.75
2019-02-26T04:35:44.896Z,28.45
2019-02-26T04:37:32.761Z,26.82
2019-02-26T04:39:36.748Z,24.07
2019-02-26T04:41:15.884Z,27.25
2019-02-26T04:42:47.758Z,25.15
2019-02-26T04:44:33.902Z,23.65
2019-02-26T04:45:57.301Z,28.67
2019-02-26T04:47:30.798Z,23.07
2019-02-26T04:48:38.436Z,26.33
2019-02-26T04:49:44.496Z,23.15
2019-02-26T04:50:50.754Z,24.63
2019-02-26T04:51:56.936Z,28.42
2019-02-26T04:53:05.814Z,23.77
2019-02-26T04:54:10.916Z,23.80
2019-02-26T04:55:16.958Z,31.60
2019-02-26T04:56:23.035Z,27.98
2019-02-26T04:57:29.024Z,28.20
2019-02-26T04:58:37.205Z,25.37
2019-02-26T04:59:43.829Z,29.07
2019-02-26T05:00:51.358Z,25.90
2019-02-26T05:01:57.569Z,30.97
2019-02-26T05:03:05.218Z,27.22
2019-02-26T05:04:11.728Z,27.65
2019-02-26T05:05:17.877Z,24.87
2019-02-26T05:06:24.225Z,27.82
2019-02-26T05:07:32.782Z,31.17
2019-02-26T05:08:40.130Z,25.77
2019-02-26T05:09:47.309Z,27.48
2019-02-26T05:10:55.026Z,25.00
2019-02-26T05:12:01.331Z,30.15
2019-02-26T05:13:09.691Z,26.57
2019-02-26T05:14:20.799Z,29.15
2019-02-26T05:15:26.246Z,26.10
2019-02-26T05:16:32.645Z,25.95
2019-02-26T05:17:39.039Z,32.83
2019-02-26T05:18:47.048Z,27.35
2019-02-26T05:19:52.544Z,24.87
2019-02-26T05:20:59.751Z,27.45
2019-02-26T05:22:07.160Z,27.77
2019-02-26T05:23:13.386Z,26.60
2019-02-26T05:24:21.924Z,27.50
2019-02-26T05:25:28.673Z,25.60
2019-02-26T05:26:35.017Z,24.70
2019-02-26T05:27:42.805Z,35.88
2019-02-26T05:28:51.555Z,28.23
2019-02-26T05:29:57.868Z,26.17
2019-02-26T05:31:06.423Z,23.00
2019-02-26T05:32:11.905Z,23.40
2019-02-26T05:33:18.500Z,26.70
2019-02-26T05:34:26.035Z,26.75
2019-02-26T05:35:32.356Z,20.88
2019-02-26T05:36:40.289Z,30.92
2019-02-26T05:37:46.254Z,25.62
2019-02-26T05:38:54.634Z,27.73
2019-02-26T05:40:00.381Z,29.63
2019-02-26T05:41:06.576Z,26.45
2019-02-26T05:42:12.354Z,28.77
2019-02-26T05:43:20.245Z,26.00
2019-02-26T05:44:26.196Z,30.75
2019-02-26T05:45:34.997Z,27.85
2019-02-26T05:46:40.080Z,24.87
2019-02-26T05:47:48.878Z,22.77
2019-02-26T05:48:54.116Z,30.82
2019-02-26T05:50:02.712Z,23.52
2019-02-26T05:51:09.341Z,26.80
2019-02-26T05:52:15.832Z,27.05
2019-02-26T05:53:21.706Z,29.07
2019-02-26T05:54:27.899Z,30.02
2019-02-26T05:55:34.149Z,28.83
2019-02-26T05:56:41.289Z,30.85
2019-02-26T05:57:48.256Z,34.50
2019-02-26T05:58:54.427Z,37.63
2019-02-26T06:00:00.545Z,25.70
2019-02-26T06:01:06.686Z,34.50
2019-02-26T06:02:14.188Z,29.02
2019-02-26T06:03:20.910Z,28.92
2019-02-26T06:04:27.285Z,28.77
2019-02-26T06:05:32.960Z,30.80
2019-02-26T06:06:39.156Z,30.35
2019-02-26T06:07:45.543Z,29.40
2019-02-26T06:08:54.355Z,28.27
2019-02-26T06:09:59.946Z,29.72
2019-02-26T06:11:06.370Z,32.78
2019-02-26T06:12:12.517Z,27.62
2019-02-26T06:13:18.832Z,30.30
2019-02-26T06:14:27.424Z,27.35
2019-02-26T06:15:34.190Z,24.25
2019-02-26T06:16:40.376Z,26.85
2019-02-26T06:17:48.162Z,30.55
2019-02-26T06:18:54.455Z,24.60
2019-02-26T06:20:11.134Z,24.43
2019-02-26T06:21:20.453Z,24.18
2019-02-26T06:22:27.186Z,28.02
2019-02-26T06:23:34.464Z,28.25
2019-02-26T06:24:40.755Z,28.00
2019-02-26T06:25:46.897Z,27.75
2019-02-26T06:26:54.261Z,26.02
2019-02-26T06:28:04.528Z,29.72
2019-02-26T06:29:07.943Z,25.68
2019-02-26T06:30:14.460Z,25.02
2019-02-26T06:31:22.085Z,26.00
2019-02-26T06:32:32.205Z,25.43
2019-02-26T06:33:38.346Z,26.52
2019-02-26T06:34:44.056Z,25.77
2019-02-26T06:35:50.150Z,24.05
2019-02-26T06:37:13.832Z,21.95
2019-02-26T06:38:21.099Z,22.48
2019-02-26T06:39:29.184Z,23.27
2019-02-26T06:40:36.961Z,28.32
2019-02-26T06:41:44.353Z,21.90
2019-02-26T06:42:50.648Z,22.67
2019-02-26T06:43:57.010Z,23.77
2019-02-26T06:45:04.040Z,25.05
2019-02-26T06:46:12.275Z,26.80
2019-02-26T06:47:18.720Z,23.42
2019-02-26T06:48:27.531Z,24.77
2019-02-26T06:49:32.805Z,22.65
2019-02-26T06:50:41.065Z,27.77
2019-02-26T06:51:47.462Z,20.80
2019-02-26T06:52:54.658Z,24.07
2019-02-26T06:54:01.163Z,23.95
2019-02-26T06:55:08.704Z,22.87
2019-02-26T06:56:16.029Z,22.82
2019-02-26T06:57:22.740Z,22.42
2019-02-26T06:58:29.697Z,26.95
2019-02-26T06:59:36.869Z,29.00
2019-02-26T07:00:43.702Z,24.77
2019-02-26T07:01:50.160Z,26.90
2019-02-26T07:02:56.413Z,27.45
2019-02-26T07:04:02.735Z,24.80
2019-02-26T07:05:11.080Z,27.17
2019-02-26T07:06:22.769Z,22.10
2019-02-26T07:07:27.107Z,21.70
2019-02-26T07:08:33.356Z,21.87
2019-02-26T07:09:41.458Z,28.67
2019-02-26T07:10:48.207Z,23.50
2019-02-26T07:11:54.337Z,23.60
2019-02-26T07:13:02.060Z,19.48
2019-02-26T07:14:10.222Z,20.12
2019-02-26T07:15:16.372Z,22.48
2019-02-26T07:16:23.557Z,23.52
2019-02-26T07:17:33.743Z,25.72
2019-02-26T07:18:37.765Z,23.45
2019-02-26T07:19:43.935Z,19.35
2019-02-26T07:20:52.601Z,23.40
2019-02-26T07:21:57.385Z,16.52
2019-02-26T07:23:05.667Z,20.55
2019-02-26T07:24:11.317Z,20.85
2019-02-26T07:25:18.622Z,22.42
2019-02-26T07:26:24.876Z,20.00
2019-02-26T07:27:32.061Z,23.22
2019-02-26T07:28:39.705Z,18.98
2019-02-26T07:29:47.954Z,21.40
2019-02-26T07:30:54.433Z,18.62
2019-02-26T07:32:00.710Z,22.70
2019-02-26T07:33:08.040Z,22.82
2019-02-26T07:34:15.652Z,18.10
2019-02-26T07:35:22.330Z,17.40
2019-02-26T07:36:28.638Z,19.45
2019-02-26T07:37:37.544Z,19.25
2019-02-26T07:38:44.638Z,19.30
2019-02-26T07:39:51.557Z,17.17
2019-02-26T07:40:59.566Z,19.85
2019-02-26T07:42:07.415Z,14.75
2019-02-26T07:43:15.399Z,14.90
2019-02-26T07:44:23.425Z,17.10
2019-02-26T07:45:29.813Z,18.17
2019-02-26T07:46:38.557Z,13.68
2019-02-26T07:47:45.501Z,17.90
2019-02-26T07:48:53.889Z,18.17
2019-02-26T07:50:01.755Z,14.60
2019-02-26T07:51:07.302Z,17.30
2019-02-26T07:52:13.462Z,21.02
2019-02-26T07:53:22.163Z,18.42
2019-02-26T07:54:29.079Z,14.38
2019-02-26T07:55:35.989Z,16.17
2019-02-26T07:56:43.296Z,17.17
2019-02-26T07:57:51.217Z,15.40
2019-02-26T07:59:01.301Z,22.02
2019-02-26T08:00:05.975Z,21.42
2019-02-26T08:01:12.516Z,20.20
2019-02-26T08:02:18.737Z,19.52
2019-02-26T08:03:26.850Z,20.50
2019-02-26T08:04:34.491Z,20.30
2019-02-26T08:05:40.287Z,17.92
2019-02-26T08:06:46.332Z,13.83
2019-02-26T08:07:55.819Z,17.17
2019-02-26T08:09:00.094Z,17.10
2019-02-26T08:10:09.970Z,17.73
2019-02-26T08:11:16.251Z,17.05
2019-02-26T08:12:22.402Z,23.98
2019-02-26T08:13:29.700Z,21.40
2019-02-26T08:14:41.082Z,19.37
2019-02-26T08:15:47.573Z,17.82
2019-02-26T08:16:56.125Z,17.60
2019-02-26T08:18:03.466Z,20.12
2019-02-26T08:19:09.444Z,20.05
2019-02-26T08:20:16.310Z,14.73
2019-02-26T08:21:24.739Z,14.83
2019-02-26T08:22:32.360Z,14.28
2019-02-26T08:23:38.007Z,15.83
2019-02-26T08:24:46.092Z,15.65
2019-02-26T08:25:52.365Z,16.07
2019-02-26T08:27:01.035Z,15.75
2019-02-26T08:28:07.362Z,17.40
2019-02-26T08:29:13.493Z,24.20
2019-02-26T08:30:21.408Z,14.25
2019-02-26T08:31:28.038Z,18.98
2019-02-26T08:32:34.180Z,18.98
2019-02-26T08:33:40.162Z,17.95
2019-02-26T08:34:46.296Z,16.50
2019-02-26T08:35:55.543Z,17.57
2019-02-26T08:37:00.101Z,16.75
2019-02-26T08:38:06.680Z,20.30
2019-02-26T08:39:15.619Z,15.40
2019-02-26T08:40:20.548Z,16.10
2019-02-26T08:41:26.616Z,22.82
2019-02-26T08:42:32.820Z,15.30
2019-02-26T08:43:42.173Z,15.25
2019-02-26T08:44:48.672Z,14.90
2019-02-26T08:45:54.686Z,18.67
2019-02-26T08:47:00.983Z,19.62
2019-02-26T08:48:07.606Z,15.08
2019-02-26T08:49:15.543Z,14.40
2019-02-26T08:50:21.107Z,15.18
2019-02-26T08:51:27.342Z,20.02
2019-02-26T08:52:33.597Z,16.32
2019-02-26T08:53:39.735Z,15.85
2019-02-26T08:54:45.878Z,13.98
2019-02-26T08:55:53.632Z,13.68
2019-02-26T08:56:59.978Z,12.10
2019-02-26T08:58:07.759Z,14.25
2019-02-26T08:59:15.598Z,14.70
2019-02-26T09:00:21.726Z,12.73
2019-02-26T09:01:27.714Z,11.73
2019-02-26T09:02:33.812Z,11.05
2019-02-26T09:03:40.953Z,12.68
2019-02-26T09:04:47.803Z,10.03
2019-02-26T09:05:56.134Z,12.40
2019-02-26T09:07:02.116Z,11.90
2019-02-26T09:08:10.877Z,15.25
2019-02-26T09:09:16.455Z,11.38
2019-02-26T09:10:23.376Z,13.13
2019-02-26T09:11:31.828Z,12.80
2019-02-26T09:12:39.009Z,17.10
2019-02-26T09:13:45.406Z,14.65
2019-02-26T09:14:51.500Z,14.07
2019-02-26T09:16:00.106Z,13.13
2019-02-26T09:17:05.555Z,12.40
2019-02-26T09:18:11.979Z,10.03
2019-02-26T09:19:18.452Z,13.05
2019-02-26T09:20:24.726Z,12.00
2019-02-26T09:21:34.743Z,12.25
2019-02-26T09:22:40.577Z,17.35
2019-02-26T09:23:49.892Z,12.58
2019-02-26T09:24:56.923Z,13.60
2019-02-26T09:26:05.148Z,11.45
2019-02-26T09:27:11.857Z,14.15
2019-02-26T09:28:17.928Z,12.23
2019-02-26T09:29:24.193Z,11.97
2019-02-26T09:30:33.423Z,13.80
2019-02-26T09:31:39.448Z,14.25
2019-02-26T09:32:45.756Z,12.37
2019-02-26T09:33:52.054Z,14.23
2019-02-26T09:34:59.284Z,17.77
2019-02-26T09:36:10.523Z,14.30
2019-02-26T09:37:14.756Z,13.38
2019-02-26T09:38:22.968Z,14.43
2019-02-26T09:39:29.462Z,12.47
2019-02-26T09:40:36.432Z,13.45
2019-02-26T09:41:45.371Z,10.72
2019-02-26T09:42:52.371Z,13.43
2019-02-26T09:43:59.362Z,11.00
2019-02-26T09:45:07.126Z,12.78
2019-02-26T09:46:16.353Z,12.05
2019-02-26T09:47:30.981Z,10.65
2019-02-26T09:48:38.249Z,12.53
2019-02-26T09:49:47.805Z,13.08
2019-02-26T09:50:53.872Z,11.33
2019-02-26T09:52:01.547Z,11.95
2019-02-26T09:53:07.851Z,9.85
2019-02-26T09:54:15.295Z,8.20
2019-02-26T09:55:21.751Z,10.32
2019-02-26T09:56:28.117Z,14.03
2019-02-26T09:57:34.357Z,10.88
2019-02-26T09:58:45.701Z,13.05
2019-02-26T09:59:54.588Z,10.82
2019-02-26T10:01:00.505Z,13.80
2019-02-26T10:02:07.996Z,9.00
2019-02-26T10:03:15.090Z,10.53
2019-02-26T10:04:22.116Z,9.70
2019-02-26T10:05:28.923Z,12.80
2019-02-26T10:06:37.358Z,10.78
2019-02-26T10:07:43.023Z,12.37
2019-02-26T10:08:51.350Z,13.68
2019-02-26T10:09:57.178Z,12.15
2019-02-26T10:11:04.902Z,11.88
2019-02-26T10:12:13.477Z,11.55
2019-02-26T10:13:21.079Z,11.45
2019-02-26T10:14:28.661Z,10.18
2019-02-26T10:15:35.456Z,10.72
2019-02-26T10:16:42.168Z,8.70
2019-02-26T10:17:48.067Z,11.35
2019-02-26T10:18:54.925Z,9.08
2019-02-26T10:20:04.421Z,11.57
2019-02-26T10:21:12.046Z,10.88
2019-02-26T10:22:17.774Z,11.97
2019-02-26T10:23:24.121Z,12.00
2019-02-26T10:24:32.874Z,9.25
2019-02-26T10:25:39.436Z,10.08
2019-02-26T10:26:45.407Z,12.40
2019-02-26T10:27:51.641Z,11.43
2019-02-26T10:29:03.877Z,11.83
2019-02-26T10:30:09.922Z,12.45
2019-02-26T10:31:13.731Z,10.10
2019-02-26T10:32:19.879Z,10.23
2019-02-26T10:33:27.816Z,12.50
2019-02-26T10:34:34.046Z,9.80
2019-02-26T10:35:44.312Z,8.83
2019-02-26T10:36:51.283Z,10.20
2019-02-26T10:37:57.095Z,9.75
2019-02-26T10:39:04.177Z,9.73
2019-02-26T10:40:12.087Z,8.90
2019-02-26T10:41:21.144Z,8.55
2019-02-26T10:42:27.065Z,12.15
2019-02-26T10:43:33.388Z,12.45
2019-02-26T10:44:42.735Z,12.03
2019-02-26T10:45:50.574Z,13.60
2019-02-26T10:46:58.230Z,17.55
2019-02-26T10:48:04.781Z,11.50
2019-02-26T10:49:12.399Z,22.67
2019-02-26T10:50:20.579Z,14.05
2019-02-26T10:51:27.219Z,11.43
2019-02-26T10:52:33.549Z,11.43
2019-02-26T10:53:39.818Z,11.65
2019-02-26T10:54:46.589Z,8.95
2019-02-26T10:55:52.891Z,9.43
2019-02-26T10:57:00.444Z,10.90
2019-02-26T10:58:10.461Z,14.38
2019-02-26T10:59:18.800Z,12.00
2019-02-26T11:00:25.968Z,10.60
2019-02-26T11:01:33.714Z,8.90
2019-02-26T11:02:46.012Z,12.13
2019-02-26T11:03:52.831Z,13.75
2019-02-26T11:04:59.176Z,10.38
2019-02-26T11:06:07.297Z,13.08
2019-02-26T11:07:14.266Z,9.30
2019-02-26T11:08:24.749Z,10.63
2019-02-26T11:09:31.891Z,9.20
2019-02-26T11:10:41.375Z,10.00
2019-02-26T11:11:45.590Z,10.23
2019-02-26T11:12:53.626Z,10.38
2019-02-26T11:13:59.628Z,10.80
2019-02-26T11:15:06.797Z,11.85
2019-02-26T11:16:17.078Z,12.85
2019-02-26T11:17:23.676Z,9.83
2019-02-26T11:18:29.933Z,11.33
2019-02-26T11:19:38.851Z,8.85
2019-02-26T11:20:45.817Z,12.95
2019-02-26T11:21:55.388Z,12.68
2019-02-26T11:22:58.888Z,10.45
2019-02-26T11:24:06.091Z,8.10
2019-02-26T11:25:15.812Z,7.65
2019-02-26T11:26:21.861Z,10.82
2019-02-26T11:27:28.144Z,10.03
2019-02-26T11:28:38.058Z,10.03
2019-02-26T11:29:42.279Z,13.18
2019-02-26T11:30:49.742Z,9.05
2019-02-26T11:31:56.125Z,14.05
2019-02-26T11:33:04.738Z,10.78
2019-02-26T11:34:11.253Z,14.18
2019-02-26T11:35:19.568Z,11.30
2019-02-26T11:36:25.426Z,9.75
2019-02-26T11:37:32.061Z,9.68
2019-02-26T11:38:41.613Z,10.10
2019-02-26T11:39:46.083Z,12.88
2019-02-26T11:40:52.263Z,11.28
2019-02-26T11:42:00.725Z,9.18
2019-02-26T11:43:11.512Z,8.58
2019-02-26T11:44:18.897Z,12.15
2019-02-26T11:45:21.652Z,11.70
2019-02-26T11:46:29.894Z,11.28
2019-02-26T11:47:37.383Z,9.70
2019-02-26T11:48:45.667Z,15.95
2019-02-26T11:49:51.811Z,11.55
2019-02-26T11:51:00.800Z,11.63
2019-02-26T11:52:05.966Z,12.82
2019-02-26T11:53:12.214Z,9.68
2019-02-26T11:54:17.934Z,14.47
2019-02-26T11:55:26.195Z,11.22
2019-02-26T11:56:31.552Z,11.60
2019-02-26T11:57:39.865Z,12.63
2019-02-26T11:58:45.526Z,13.83
2019-02-26T11:59:51.710Z,11.45
2019-02-26T12:00:59.567Z,11.33
2019-02-26T12:02:07.663Z,16.02
2019-02-26T12:03:14.332Z,12.23
2019-02-26T12:04:20.543Z,7.80
2019-02-26T12:05:31.432Z,13.08
2019-02-26T12:06:33.884Z,17.05
2019-02-26T12:07:40.207Z,9.18
2019-02-26T12:08:47.353Z,11.73
2019-02-26T12:09:55.538Z,10.20
2019-02-26T12:11:04.049Z,8.20
2019-02-26T12:12:11.602Z,7.33
2019-02-26T12:13:19.948Z,8.58
2019-02-26T12:14:27.418Z,9.45
2019-02-26T12:15:36.291Z,8.40
2019-02-26T12:16:41.725Z,8.88
2019-02-26T12:17:51.765Z,8.55
2019-02-26T12:18:58.775Z,9.03
2019-02-26T12:20:09.237Z,8.03
2019-02-26T12:21:15.486Z,6.87
2019-02-26T12:22:22.751Z,10.30
2019-02-26T12:23:29.485Z,9.30
2019-02-26T12:24:36.234Z,8.23
2019-02-26T12:25:42.428Z,9.63
2019-02-26T12:26:49.984Z,10.25
2019-02-26T12:27:56.033Z,8.85
2019-02-26T12:29:04.317Z,8.95
2019-02-26T12:30:15.834Z,7.22
2019-02-26T12:31:21.887Z,7.90
2019-02-26T12:32:29.622Z,10.28
2019-02-26T12:33:35.846Z,9.95
2019-02-26T12:34:44.628Z,7.75
2019-02-26T12:35:50.650Z,7.20
2019-02-26T12:36:59.629Z,7.30
2019-02-26T12:38:17.517Z,6.05
2019-02-26T12:39:12.490Z,9.70
2019-02-26T12:40:19.345Z,6.85
2019-02-26T12:41:26.147Z,6.22
2019-02-26T12:42:32.315Z,8.55
2019-02-26T12:43:42.647Z,8.28
2019-02-26T12:44:46.649Z,8.85
2019-02-26T12:45:56.069Z,9.15
2019-02-26T12:47:00.606Z,11.38
2019-02-26T12:48:09.863Z,10.40
2019-02-26T12:49:16.050Z,8.73
2019-02-26T12:50:26.067Z,8.35
2019-02-26T12:51:31.820Z,9.00
2019-02-26T12:52:37.463Z,10.60
2019-02-26T12:53:49.189Z,6.03
2019-02-26T12:54:54.943Z,9.35
2019-02-26T12:56:03.206Z,6.97
2019-02-26T12:57:09.907Z,8.98
2019-02-26T12:58:18.673Z,11.30
2019-02-26T12:59:24.039Z,7.92
2019-02-26T13:00:31.036Z,14.90
2019-02-26T13:01:39.789Z,5.62
2019-02-26T13:02:45.742Z,7.47
2019-02-26T13:03:54.945Z,4.33
2019-02-26T13:05:00.877Z,6.47
2019-02-26T13:06:09.955Z,5.60
2019-02-26T13:07:15.190Z,4.78
2019-02-26T13:08:24.160Z,10.32
2019-02-26T13:09:29.138Z,7.62
2019-02-26T13:10:35.574Z,7.40
2019-02-26T13:12:00.257Z,4.42
2019-02-26T13:12:53.870Z,4.90
2019-02-26T13:13:59.073Z,6.42
2019-02-26T13:15:09.332Z,5.60
2019-02-26T13:16:13.184Z,8.30
2019-02-26T13:17:21.019Z,7.55
2019-02-26T13:18:27.426Z,7.42
2019-02-26T13:19:36.821Z,5.80
2019-02-26T13:20:40.838Z,6.78
2019-02-26T13:21:47.089Z,7.78
2019-02-26T13:22:56.515Z,8.15
2019-02-26T13:24:11.523Z,8.55
2019-02-26T13:25:15.059Z,11.78
2019-02-26T13:26:19.716Z,13.55
2019-02-26T13:27:24.738Z,12.58
2019-02-26T13:28:31.772Z,9.78
2019-02-26T13:29:42.438Z,7.45
2019-02-26T13:30:46.470Z,10.20
2019-02-26T13:31:56.521Z,7.65
2019-02-26T13:33:04.234Z,7.35
2019-02-26T13:34:13.881Z,7.42
2019-02-26T13:35:16.099Z,6.95
2019-02-26T13:36:22.547Z,6.35
2019-02-26T13:37:32.442Z,8.60
2019-02-26T13:38:44.710Z,5.75
2019-02-26T13:39:45.546Z,6.65
2019-02-26T13:40:51.973Z,6.17
2019-02-26T13:42:03.689Z,8.15
2019-02-26T13:43:08.451Z,9.03
2019-02-26T13:44:14.741Z,8.93
2019-02-26T13:45:22.045Z,8.70
2019-02-26T13:46:28.559Z,5.22
2019-02-26T13:47:34.767Z,7.72
2019-02-26T13:48:41.927Z,7.42
2019-02-26T13:49:48.138Z,4.42
2019-02-26T13:50:54.564Z,4.05
2019-02-26T13:52:01.006Z,7.42
2019-02-26T13:53:07.294Z,7.30
2019-02-26T13:54:13.120Z,7.37
2019-02-26T13:55:18.874Z,8.63
2019-02-26T13:56:25.495Z,7.03
2019-02-26T13:57:31.722Z,9.23
2019-02-26T13:58:37.935Z,4.78
2019-02-26T13:59:44.260Z,5.10
2019-02-26T14:00:50.493Z,6.95
2019-02-26T14:01:56.636Z,8.05
2019-02-26T14:03:04.164Z,5.60
2019-02-26T14:04:10.550Z,9.60
2019-02-26T14:05:17.308Z,5.70
2019-02-26T14:06:23.914Z,9.73
2019-02-26T14:07:29.902Z,10.32
2019-02-26T14:08:36.433Z,11.12
2019-02-26T14:09:42.808Z,8.68
2019-02-26T14:10:48.924Z,6.12
2019-02-26T14:11:55.194Z,7.92
2019-02-26T14:13:01.165Z,10.88
2019-02-26T14:14:07.321Z,6.95
2019-02-26T14:15:16.631Z,7.37
2019-02-26T14:16:23.117Z,8.90
2019-02-26T14:17:29.254Z,6.90
2019-02-26T14:18:35.414Z,4.65
2019-02-26T14:19:41.791Z,6.22
2019-02-26T14:20:47.749Z,8.20
2019-02-26T14:21:53.914Z,9.48
2019-02-26T14:23:00.066Z,5.28
2019-02-26T14:24:06.242Z,8.40
2019-02-26T14:25:12.710Z,7.62
2019-02-26T14:26:18.966Z,4.20
2019-02-26T14:27:25.249Z,5.35
2019-02-26T14:28:31.531Z,6.80
2019-02-26T14:29:37.737Z,6.78
2019-02-26T14:30:44.157Z,5.95
2019-02-26T14:31:50.148Z,6.62
2019-02-26T14:32:57.127Z,7.40
2019-02-26T14:34:05.363Z,6.90
2019-02-26T14:35:12.895Z,6.60
2019-02-26T14:36:19.053Z,4.50
2019-02-26T14:37:27.807Z,7.12
2019-02-26T14:38:34.094Z,8.28